Time;durP1;ratioP1;P1;durP2;ratioP2;P2;SDS_P1;SDS_P2;PMS_P1;PMS_P2;Temp;Humidity;BMP_temperature;BMP_pressure;BME280_temperature;BME280_humidity;BME280_pressure;Samples;Min_cycle;Max_cycle;Signal;HPM_P1;HPM_P2
2021/11/23 00:02:15;;;;;;;2.47;0.90;;;;;;;11.02;93.45;100224.13;1716256;83;21501;-62
2021/11/23 00:04:42;;;;;;;2.37;0.70;;;;;;;11.01;96.40;100221.73;1709160;83;20944;-63
2021/11/23 00:07:09;;;;;;;2.42;0.70;;;;;;;11.26;96.25;100224.77;1709995;83;22178;-70
2021/11/23 00:09:38;;;;;;;1.85;0.80;;;;;;;10.51;100.00;100228.63;1710699;83;21488;-61
2021/11/23 00:12:07;;;;;;;1.87;0.60;;;;;;;10.98;99.61;100227.31;1710603;83;21162;-62
2021/11/23 00:14:34;;;;;;;2.58;0.85;;;;;;;11.10;97.72;100233.64;1709901;83;20983;-64
2021/11/23 00:17:04;;;;;;;1.85;0.68;;;;;;;11.22;96.85;100233.97;1710207;83;21063;-61
2021/11/23 00:19:33;;;;;;;1.82;0.50;;;;;;;11.22;94.52;100226.95;1710608;83;21102;-60
2021/11/23 00:22:00;;;;;;;1.70;0.60;;;;;;;11.23;92.86;100229.86;1710382;83;21035;-61
2021/11/23 00:24:28;;;;;;;1.98;0.42;;;;;;;11.22;92.61;100230.86;1710183;83;21149;-62
2021/11/23 00:26:55;;;;;;;1.10;0.35;;;;;;;11.15;93.11;100234.70;1710615;83;22495;-64
2021/11/23 00:29:22;;;;;;;2.27;1.05;;;;;;;11.31;92.40;100237.55;1710283;83;21535;-61
2021/11/23 00:31:51;;;;;;;2.12;0.62;;;;;;;11.59;89.06;100231.53;1710599;83;21043;-61
2021/11/23 00:34:19;;;;;;;2.70;0.80;;;;;;;11.43;91.21;100234.73;1710870;83;20952;-60
2021/11/23 00:36:47;;;;;;;1.98;0.70;;;;;;;11.43;91.81;100235.23;1710004;83;21125;-61
2021/11/23 00:39:16;;;;;;;1.65;0.53;;;;;;;11.54;89.44;100233.41;1710031;83;21842;-60
2021/11/23 00:41:49;;;;;;;1.30;0.50;;;;;;;11.07;93.45;100240.05;1710828;83;21070;-62
2021/11/23 00:44:17;;;;;;;2.37;0.90;;;;;;;10.90;96.24;100245.99;1710754;83;21485;-60
2021/11/23 00:46:44;;;;;;;2.58;1.47;;;;;;;10.96;97.53;100242.66;1710229;83;20990;-71
2021/11/23 00:49:13;;;;;;;3.60;2.17;;;;;;;11.04;95.92;100239.12;1710513;83;22528;-61
2021/11/23 00:51:40;;;;;;;3.70;2.17;;;;;;;11.01;96.82;100232.16;1699246;83;21082;-61
2021/11/23 00:54:08;;;;;;;4.08;1.70;;;;;;;11.05;95.65;100233.40;1710641;83;21007;-62
2021/11/23 00:56:36;;;;;;;2.80;1.20;;;;;;;11.04;95.69;100237.02;1709734;83;20979;-61
2021/11/23 00:59:05;;;;;;;3.95;1.55;;;;;;;11.05;96.49;100230.79;1710121;83;20999;-61
2021/11/23 01:01:32;;;;;;;3.27;1.22;;;;;;;11.42;91.73;100225.30;1710733;83;21142;-61
2021/11/23 01:03:59;;;;;;;1.82;0.60;;;;;;;11.30;90.82;100228.11;1707630;83;21014;-61
2021/11/23 01:06:27;;;;;;;2.33;0.82;;;;;;;11.13;91.85;100228.86;1703159;84;21019;-63
2021/11/23 01:08:55;;;;;;;3.33;1.10;;;;;;;11.11;93.01;100233.47;1703539;84;20987;-71
2021/11/23 01:11:23;;;;;;;3.10;1.02;;;;;;;10.99;95.32;100227.64;1703860;84;21075;-61
2021/11/23 01:13:50;;;;;;;2.72;1.02;;;;;;;11.01;97.43;100224.34;1704295;83;21152;-61
2021/11/23 01:16:17;;;;;;;4.62;1.80;;;;;;;11.03;97.47;100226.27;1703862;84;21022;-64
2021/11/23 01:18:45;;;;;;;1.62;0.62;;;;;;;11.49;92.22;100221.94;1702643;84;20968;-62
2021/11/23 01:21:14;;;;;;;3.25;0.85;;;;;;;11.33;93.40;100230.35;1703924;84;21321;-62
2021/11/23 01:23:42;;;;;;;2.98;1.15;;;;;;;11.49;92.08;100234.98;1693567;84;20940;-61
2021/11/23 01:26:09;;;;;;;2.27;1.00;;;;;;;11.49;92.01;100233.18;1703851;84;21126;-63
2021/11/23 01:28:36;;;;;;;2.27;0.80;;;;;;;11.42;91.55;100230.52;1702647;84;21031;-62
2021/11/23 01:31:04;;;;;;;2.62;1.10;;;;;;;11.61;87.72;100227.74;1703254;84;21142;-62
2021/11/23 01:33:31;;;;;;;2.92;1.42;;;;;;;12.08;82.86;100225.43;1704387;83;21066;-63
2021/11/23 01:35:59;;;;;;;2.87;1.40;;;;;;;11.82;83.18;100226.05;1704133;84;20963;-62
2021/11/23 01:38:26;;;;;;;3.00;1.37;;;;;;;11.39;85.86;100217.84;1704069;84;21850;-74
2021/11/23 01:40:53;;;;;;;3.90;1.10;;;;;;;11.28;89.62;100220.16;1703365;83;20972;-62
2021/11/23 01:43:20;;;;;;;2.95;1.40;;;;;;;11.43;88.58;100224.29;1703564;84;21142;-61
2021/11/23 01:45:48;;;;;;;3.05;1.27;;;;;;;11.26;89.92;100225.58;1703999;83;20991;-62
2021/11/23 01:48:16;;;;;;;2.95;1.27;;;;;;;11.58;87.16;100220.78;1703918;84;20912;-61
2021/11/23 01:50:43;;;;;;;2.15;0.90;;;;;;;11.58;85.24;100220.78;1703084;84;21157;-70
2021/11/23 01:53:10;;;;;;;2.47;1.22;;;;;;;11.69;83.90;100220.27;1702690;84;21308;-65
2021/11/23 01:55:40;;;;;;;3.15;1.25;;;;;;;11.89;80.74;100218.62;1703892;83;22376;-62
2021/11/23 01:58:08;;;;;;;4.37;1.20;;;;;;;11.57;82.35;100221.28;1704021;84;20992;-62
2021/11/23 02:00:36;;;;;;;3.35;1.37;;;;;;;11.58;82.80;100220.78;1703072;82;20996;-73
2021/11/23 02:03:05;;;;;;;2.70;1.40;;;;;;;11.59;81.87;100221.09;1702984;84;22114;-62
2021/11/23 02:05:35;;;;;;;3.37;1.32;;;;;;;11.67;83.96;100219.66;1710456;83;21018;-62
2021/11/23 02:08:02;;;;;;;2.85;1.00;;;;;;;11.74;79.99;100213.95;1710666;83;21007;-62
2021/11/23 02:10:31;;;;;;;3.05;1.12;;;;;;;11.53;82.21;100212.73;1710739;83;21037;-73
2021/11/23 02:13:00;;;;;;;3.45;1.75;;;;;;;11.55;81.20;100219.86;1710038;83;22135;-62
2021/11/23 02:15:28;;;;;;;5.22;1.82;;;;;;;11.39;80.62;100213.12;1710583;83;21170;-62
2021/11/23 02:17:56;;;;;;;5.12;2.08;;;;;;;11.26;84.27;100215.64;1710660;83;21421;-63
2021/11/23 02:20:24;;;;;;;4.67;2.27;;;;;;;11.19;84.98;100209.05;1710843;83;21541;-62
2021/11/23 02:22:51;;;;;;;5.70;2.58;;;;;;;11.78;77.50;100208.69;1709368;83;21000;-62
2021/11/23 02:25:19;;;;;;;4.33;1.92;;;;;;;11.69;76.47;100217.14;1710516;83;21086;-62
2021/11/23 02:27:49;;;;;;;3.58;1.50;;;;;;;11.50;76.62;100210.49;1710722;83;21141;-63
2021/11/23 02:30:16;;;;;;;3.27;1.37;;;;;;;11.44;77.23;100212.07;1710903;83;20940;-63
2021/11/23 02:32:54;;;;;;;3.33;1.12;;;;;;;11.40;76.43;100206.89;1709601;83;21022;-72
2021/11/23 02:35:23;;;;;;;2.98;1.02;;;;;;;11.47;75.73;100199.12;1710688;83;21485;-61
2021/11/23 02:37:53;;;;;;;3.45;1.40;;;;;;;11.63;71.77;100198.82;1710750;83;20936;-61
2021/11/23 02:40:20;;;;;;;2.98;1.40;;;;;;;11.53;70.88;100202.28;1710606;83;21138;-62
2021/11/23 02:42:48;;;;;;;2.22;1.07;;;;;;;11.90;67.60;100183.66;1709754;83;20998;-61
2021/11/23 02:45:21;;;;;;;4.75;1.32;;;;;;;11.86;67.16;100191.58;1710666;83;21062;-61
2021/11/23 02:47:48;;;;;;;4.92;2.50;;;;;;;11.73;67.17;100195.88;1710433;83;20990;-61
2021/11/23 02:50:16;;;;;;;3.85;1.90;;;;;;;11.41;69.22;100199.39;1710871;83;20900;-72
2021/11/23 02:52:44;;;;;;;3.02;1.40;;;;;;;11.66;68.22;100201.05;1709789;83;21114;-70
2021/11/23 02:55:11;;;;;;;2.80;1.22;;;;;;;11.29;68.56;100201.72;1710583;83;21540;-62
2021/11/23 02:57:39;;;;;;;3.50;1.72;;;;;;;11.36;68.65;100201.75;1699602;83;20939;-61
2021/11/23 03:00:17;;;;;;;4.17;1.70;;;;;;;11.37;69.65;100203.38;1710643;83;21008;-61
2021/11/23 03:02:45;;;;;;;4.05;1.50;;;;;;;11.19;72.38;100212.46;1700101;83;21806;-62
2021/11/23 03:05:13;;;;;;;3.30;1.50;;;;;;;11.82;67.08;100209.08;1710529;83;21153;-62
2021/11/23 03:07:40;;;;;;;3.17;1.47;;;;;;;12.18;63.84;100207.60;1699618;83;21015;-63
2021/11/23 03:10:09;;;;;;;5.20;1.50;;;;;;;12.23;62.54;100210.42;1710003;83;21098;-61
2021/11/23 03:12:37;;;;;;;4.05;1.87;;;;;;;11.80;62.78;100206.67;1709589;83;20983;-62
2021/11/23 03:15:06;;;;;;;4.50;1.77;;;;;;;11.25;67.79;100212.70;1710601;83;21121;-62
2021/11/23 03:17:33;;;;;;;2.77;1.42;;;;;;;11.38;67.38;100201.88;1710626;83;21149;-62
2021/11/23 03:20:02;;;;;;;2.35;1.42;;;;;;;11.34;69.05;100201.14;1710056;83;20984;-63
2021/11/23 03:22:30;;;;;;;2.45;1.30;;;;;;;11.16;69.65;100207.61;1709844;83;21058;-69
2021/11/23 03:24:57;;;;;;;2.20;1.12;;;;;;;11.54;67.78;100207.30;1710580;83;21326;-63
2021/11/23 03:27:26;;;;;;;3.90;2.10;;;;;;;11.66;66.01;100204.97;1710728;83;20942;-74
2021/11/23 03:29:53;;;;;;;3.65;1.80;;;;;;;11.44;66.65;100210.77;1710148;83;21069;-62
2021/11/23 03:32:21;;;;;;;3.60;2.00;;;;;;;12.13;64.29;100211.31;1710690;83;21118;-62
2021/11/23 03:34:50;;;;;;;4.20;1.85;;;;;;;11.86;63.69;100214.28;1709911;83;21082;-63
2021/11/23 03:37:22;;;;;;;5.03;2.30;;;;;;;11.39;67.45;100227.47;1688460;83;21125;-61
2021/11/23 03:39:50;;;;;;;3.50;2.12;;;;;;;10.94;70.41;100225.56;1710107;83;21481;-62
2021/11/23 03:42:18;;;;;;;4.42;1.95;;;;;;;8.47;99.77;100233.31;1710342;83;21200;-63
2021/11/23 03:44:45;;;;;;;3.87;2.10;;;;;;;8.35;100.00;100238.55;1709641;83;21477;-68
2021/11/23 03:47:14;;;;;;;4.45;2.15;;;;;;;8.55;100.00;100241.56;1710579;83;21101;-63
2021/11/23 03:49:43;;;;;;;3.98;2.27;;;;;;;8.35;100.00;100243.73;1699373;83;21012;-73
2021/11/23 03:52:11;;;;;;;4.85;2.58;;;;;;;8.09;100.00;100247.08;1710770;83;21276;-65
2021/11/23 03:54:38;;;;;;;4.60;1.80;;;;;;;7.99;100.00;100258.47;1710117;83;21125;-61
2021/11/23 03:57:06;;;;;;;5.67;2.50;;;;;;;7.60;100.00;100254.95;1710691;83;21528;-62
2021/11/23 03:59:33;;;;;;;4.20;2.20;;;;;;;7.36;100.00;100254.48;1710061;83;21547;-65
2021/11/23 04:02:02;;;;;;;4.58;2.33;;;;;;;7.20;100.00;100256.59;1676736;80;21079;-64
2021/11/23 04:04:29;;;;;;;6.37;2.70;;;;;;;7.49;100.00;100260.78;1669148;84;21118;-73
2021/11/23 04:06:58;;;;;;;6.65;3.08;;;;;;;7.28;100.00;100257.89;1705862;83;22233;-63
2021/11/23 04:09:25;;;;;;;5.05;2.80;;;;;;;7.24;100.00;100254.00;1702149;83;20972;-74
2021/11/23 04:11:54;;;;;;;5.10;2.72;;;;;;;7.60;100.00;100257.55;1743291;81;21648;-62
2021/11/23 04:14:21;;;;;;;5.90;3.27;;;;;;;7.47;100.00;100253.67;1745473;81;21015;-62
2021/11/23 04:16:49;;;;;;;7.37;3.67;;;;;;;7.41;100.00;100251.72;1756297;81;20865;-63
2021/11/23 04:19:16;;;;;;;8.23;4.67;;;;;;;7.31;100.00;100258.83;1705652;82;22060;-62
2021/11/23 04:21:45;;;;;;;5.70;3.52;;;;;;;7.44;100.00;100251.89;1752791;81;21479;-64
2021/11/23 04:24:13;;;;;;;4.97;2.72;;;;;;;7.65;100.00;100253.50;1744214;81;21076;-63
2021/11/23 04:26:41;;;;;;;3.98;2.27;;;;;;;7.69;100.00;100259.98;1739955;81;21043;-75
2021/11/23 04:29:09;;;;;;;4.35;2.20;;;;;;;7.84;100.00;100252.80;1751168;81;21000;-63
2021/11/23 04:31:36;;;;;;;4.87;2.42;;;;;;;7.96;100.00;100256.69;1740118;81;21153;-62
2021/11/23 04:34:06;;;;;;;5.92;2.72;;;;;;;8.12;100.00;100256.64;1735393;81;20997;-67
2021/11/23 04:36:34;;;;;;;7.00;3.15;;;;;;;7.57;100.00;100265.16;1752956;81;21559;-61
2021/11/23 04:39:02;;;;;;;7.78;3.70;;;;;;;7.68;100.00;100259.64;1745614;81;20982;-63
2021/11/23 04:41:29;;;;;;;6.55;3.70;;;;;;;7.76;100.00;100258.33;1757737;81;20977;-72
2021/11/23 04:43:57;;;;;;;8.15;5.25;;;;;;;7.87;100.00;100263.66;1756009;80;21121;-59
2021/11/23 04:46:24;;;;;;;7.53;4.58;;;;;;;7.87;100.00;100264.16;1746959;81;21002;-60
2021/11/23 04:48:53;;;;;;;6.10;3.52;;;;;;;8.21;100.00;100271.20;1734576;81;21501;-63
2021/11/23 04:51:23;;;;;;;5.40;3.15;;;;;;;8.28;100.00;100262.27;1735653;81;21547;-61
2021/11/23 04:53:50;;;;;;;6.90;3.80;;;;;;;7.97;100.00;100276.48;1737827;81;20871;-61
2021/11/23 04:56:17;;;;;;;5.70;2.85;;;;;;;8.38;100.00;100274.61;1759413;81;21091;-61
2021/11/23 04:58:45;;;;;;;5.20;3.00;;;;;;;8.42;100.00;100277.19;1756655;81;20979;-73
2021/11/23 05:01:12;;;;;;;4.78;2.30;;;;;;;8.43;100.00;100281.89;1746280;81;21055;-62
2021/11/23 05:03:39;;;;;;;5.53;1.90;;;;;;;8.58;100.00;100280.20;1734813;81;20948;-63
2021/11/23 05:06:07;;;;;;;4.53;2.22;;;;;;;8.82;100.00;100277.16;1758797;81;20937;-62
2021/11/23 05:08:36;;;;;;;5.33;2.95;;;;;;;8.59;100.00;100277.11;1716435;82;20947;-62
2021/11/23 05:11:04;;;;;;;7.20;3.90;;;;;;;8.73;100.00;100286.80;1688870;84;20980;-60
2021/11/23 05:13:31;;;;;;;6.70;3.62;;;;;;;8.33;100.00;100285.94;1750767;80;21060;-60
2021/11/23 05:15:58;;;;;;;7.03;4.17;;;;;;;8.49;100.00;100284.63;1750055;81;20950;-71
2021/11/23 05:18:26;;;;;;;6.55;4.30;;;;;;;8.58;100.00;100288.00;1750328;81;21041;-69
2021/11/23 05:20:55;;;;;;;9.65;6.58;;;;;;;8.81;100.00;100290.64;1751597;81;22352;-63
2021/11/23 05:23:22;;;;;;;8.73;5.83;;;;;;;8.55;100.00;100296.62;1745970;81;21018;-63
2021/11/23 05:25:50;;;;;;;8.88;6.10;;;;;;;8.99;100.00;100296.89;1719816;83;21434;-63
2021/11/23 05:28:21;;;;;;;8.95;5.35;;;;;;;9.07;100.00;100294.73;1756165;81;21584;-65
2021/11/23 05:30:50;;;;;;;9.90;4.83;;;;;;;9.07;100.00;100300.74;1753697;81;20982;-62
2021/11/23 05:33:18;;;;;;;8.28;5.33;;;;;;;9.24;100.00;100300.13;1744513;81;21162;-60
2021/11/23 05:35:49;;;;;;;8.38;5.40;;;;;;;9.47;98.80;100302.73;1744723;81;21049;-63
2021/11/23 05:38:14;;;;;;;7.97;4.90;;;;;;;9.75;93.97;100301.20;1744311;81;21032;-62
2021/11/23 05:40:44;;;;;;;7.55;5.33;;;;;;;9.56;96.19;100309.50;1757340;81;22484;-60
2021/11/23 05:43:12;;;;;;;9.25;5.83;;;;;;;9.26;98.11;100308.59;1751555;81;20994;-61
2021/11/23 05:45:41;;;;;;;9.53;5.90;;;;;;;9.47;96.67;100317.88;1743926;81;21171;-62
2021/11/23 05:48:08;;;;;;;9.35;5.65;;;;;;;9.63;94.47;100316.94;1714513;83;21140;-70
2021/11/23 05:50:35;;;;;;;12.20;6.40;;;;;;;9.55;94.90;100308.39;1756844;81;21032;-61
2021/11/23 05:53:02;;;;;;;10.13;7.15;;;;;;;9.37;97.89;100312.58;1720262;83;20923;-62
2021/11/23 05:55:30;;;;;;;12.68;9.65;;;;;;;9.43;98.59;100312.70;1698020;84;20956;-61
2021/11/23 05:57:57;;;;;;;9.80;6.30;;;;;;;9.35;97.69;100320.54;1694889;84;21104;-61
2021/11/23 06:00:24;;;;;;;8.65;6.15;;;;;;;9.20;100.00;100319.67;1697340;84;20947;-71
2021/11/23 06:02:51;;;;;;;8.85;5.83;;;;;;;9.22;98.40;100317.72;1729477;82;21515;-61
2021/11/23 06:05:18;;;;;;;8.88;4.45;;;;;;;9.70;94.51;100324.36;1761573;80;21116;-61
2021/11/23 06:07:46;;;;;;;10.25;6.15;;;;;;;9.90;90.37;100319.47;1763522;81;21619;-61
2021/11/23 06:10:14;;;;;;;9.88;6.33;;;;;;;9.49;92.24;100321.09;1764431;81;21172;-62
2021/11/23 06:12:43;;;;;;;12.03;5.03;;;;;;;9.11;98.29;100314.21;1764658;80;21020;-62
2021/11/23 06:15:14;;;;;;;6.40;3.65;;;;;;;9.15;100.00;100318.09;1765795;81;21505;-64
2021/11/23 06:17:41;;;;;;;7.15;3.80;;;;;;;9.23;99.61;100315.42;1743866;81;21414;-61
2021/11/23 06:20:10;;;;;;;6.10;3.20;;;;;;;9.12;99.32;100314.52;1771602;80;20876;-62
2021/11/23 06:22:37;;;;;;;8.33;3.40;;;;;;;9.25;96.51;100313.48;1730123;82;21197;-62
2021/11/23 06:25:07;;;;;;;6.50;2.98;;;;;;;9.26;95.75;100304.69;1714871;83;21026;-61
2021/11/23 06:27:36;;;;;;;4.87;2.60;;;;;;;9.37;96.29;100310.78;1724511;83;20930;-61
2021/11/23 06:30:05;;;;;;;10.43;4.85;;;;;;;9.29;94.92;100310.05;1714132;83;21026;-61
2021/11/23 06:32:33;;;;;;;6.87;3.30;;;;;;;9.34;93.26;100309.83;1724188;83;21024;-73
2021/11/23 06:35:00;;;;;;;7.12;3.22;;;;;;;9.49;91.29;100316.39;1714526;83;22507;-62
2021/11/23 06:37:28;;;;;;;6.78;2.77;;;;;;;9.64;90.36;100309.44;1724526;83;20923;-60
2021/11/23 06:39:55;;;;;;;7.87;3.55;;;;;;;9.30;92.61;100313.76;1714407;83;21003;-60
2021/11/23 06:42:22;;;;;;;7.42;3.33;;;;;;;9.36;93.02;100310.97;1725416;83;21507;-71
2021/11/23 06:44:49;;;;;;;6.33;2.90;;;;;;;9.28;94.38;100307.94;1747015;81;20993;-60
2021/11/23 06:47:17;;;;;;;7.25;3.25;;;;;;;9.55;90.63;100314.89;1764287;81;21791;-60
2021/11/23 06:49:45;;;;;;;7.90;3.10;;;;;;;9.48;90.65;100314.78;1768694;80;20933;-60
2021/11/23 06:52:13;;;;;;;5.35;2.70;;;;;;;9.50;87.83;100312.30;1762880;81;20928;-61
2021/11/23 06:54:42;;;;;;;4.62;2.12;;;;;;;9.55;87.98;100307.89;1754175;81;21486;-71
2021/11/23 06:57:09;;;;;;;5.58;3.08;;;;;;;9.60;84.86;100307.36;1774493;80;21536;-61
2021/11/23 06:59:38;;;;;;;6.87;2.40;;;;;;;9.66;84.04;100300.14;1774665;80;21143;-61
2021/11/23 07:02:05;;;;;;;4.47;2.15;;;;;;;9.33;86.16;100305.61;1729582;82;20935;-62
2021/11/23 07:04:33;;;;;;;7.25;2.72;;;;;;;9.20;86.31;100308.77;1734209;82;21038;-71
2021/11/23 07:07:01;;;;;;;5.85;2.45;;;;;;;9.49;85.69;100303.38;1771266;80;21079;-61
2021/11/23 07:09:29;;;;;;;4.72;2.10;;;;;;;9.49;83.06;100309.39;1741040;82;21479;-61
2021/11/23 07:11:56;;;;;;;6.20;3.27;;;;;;;9.47;82.18;100318.34;1718265;82;21148;-60
2021/11/23 07:14:24;;;;;;;10.70;4.55;;;;;;;9.65;81.79;100316.75;1735771;82;20938;-60
2021/11/23 07:16:52;;;;;;;20.00;8.90;;;;;;;9.75;82.28;100318.13;1734507;82;21017;-69
2021/11/23 07:19:19;;;;;;;19.15;7.30;;;;;;;9.70;81.54;100318.35;1766159;80;21028;-62
2021/11/23 07:21:48;;;;;;;19.73;6.97;;;;;;;9.82;79.09;100314.83;1765236;81;20969;-60
2021/11/23 07:24:15;;;;;;;12.58;4.08;;;;;;;10.03;77.20;100321.45;1765626;81;21203;-61
2021/11/23 07:26:43;;;;;;;7.40;2.95;;;;;;;9.99;76.09;100327.50;1773509;80;20930;-71
2021/11/23 07:29:10;;;;;;;5.65;2.50;;;;;;;10.05;77.42;100333.81;1772977;80;20929;-60
2021/11/23 07:31:38;;;;;;;5.37;2.65;;;;;;;10.12;73.09;100332.12;1777067;80;20983;-60
2021/11/23 07:34:05;;;;;;;8.03;3.30;;;;;;;10.14;72.96;100334.03;1766491;80;20996;-60
2021/11/23 07:36:32;;;;;;;6.40;3.10;;;;;;;10.31;72.99;100332.13;1726224;82;21205;-59
2021/11/23 07:39:04;;;;;;;8.08;3.60;;;;;;;10.58;70.76;100337.19;1712443;83;20959;-68
2021/11/23 07:41:29;;;;;;;6.35;3.15;;;;;;;10.72;69.90;100329.05;1724603;83;21151;-61
2021/11/23 07:43:57;;;;;;;6.95;3.83;;;;;;;10.77;69.48;100332.41;1714120;83;21004;-62
2021/11/23 07:46:25;;;;;;;6.42;2.67;;;;;;;11.03;67.44;100329.30;1725248;83;21504;-61
2021/11/23 07:48:53;;;;;;;9.90;3.92;;;;;;;10.85;67.86;100333.61;1713345;83;21158;-68
2021/11/23 07:51:21;;;;;;;6.28;3.67;;;;;;;10.93;69.37;100331.69;1725098;82;21069;-62
2021/11/23 07:53:48;;;;;;;7.97;3.62;;;;;;;10.98;70.84;100333.74;1714238;83;21066;-61
2021/11/23 07:56:15;;;;;;;7.67;3.80;;;;;;;10.89;72.36;100340.88;1724627;82;20926;-61
2021/11/23 07:58:43;;;;;;;8.10;4.10;;;;;;;11.00;75.48;100327.06;1713597;83;21513;-70
2021/11/23 08:01:10;;;;;;;6.80;3.55;;;;;;;11.51;71.40;100325.66;1725422;82;21119;-61
2021/11/23 08:03:38;;;;;;;4.47;2.30;;;;;;;11.16;73.75;100330.73;1700642;83;21561;-62
2021/11/23 08:06:05;;;;;;;4.28;2.50;;;;;;;10.97;74.86;100337.35;1719970;83;21295;-62
2021/11/23 08:08:34;;;;;;;4.37;2.43;;;;;;;11.02;75.63;100334.99;1757388;81;21083;-72
2021/11/23 08:11:02;;;;;;;6.03;2.67;;;;;;;10.92;74.63;100331.39;1758225;81;21130;-62
2021/11/23 08:13:29;;;;;;;5.10;2.60;;;;;;;11.04;72.27;100330.91;1716673;82;21283;-62
2021/11/23 08:16:04;;;;;;;6.80;4.00;;;;;;;11.37;68.04;100323.44;1690065;84;21126;-61
2021/11/23 08:18:28;;;;;;;7.27;3.43;;;;;;;11.31;68.42;100320.25;1754361;80;21094;-70
2021/11/23 08:20:55;;;;;;;5.97;3.70;;;;;;;11.43;67.27;100318.25;1754655;81;21219;-61
2021/11/23 08:23:22;;;;;;;6.60;3.70;;;;;;;11.60;65.69;100314.10;1758405;81;21220;-62
2021/11/23 08:25:50;;;;;;;6.63;4.17;;;;;;;11.78;63.53;100311.01;1756786;81;21241;-61
2021/11/23 08:28:19;;;;;;;7.40;4.00;;;;;;;12.05;60.97;100306.33;1757251;81;21086;-62
2021/11/23 08:30:46;;;;;;;8.03;3.97;;;;;;;12.17;58.05;100306.10;1719330;83;21187;-70
2021/11/23 08:33:14;;;;;;;7.57;4.60;;;;;;;12.32;55.38;100307.80;1698395;84;21354;-61
2021/11/23 08:35:41;;;;;;;7.67;4.80;;;;;;;12.31;55.57;100309.61;1720185;83;21234;-60
2021/11/23 08:38:11;;;;;;;8.53;4.97;;;;;;;12.08;55.36;100305.92;1759015;81;21170;-62
2021/11/23 08:40:39;;;;;;;8.13;4.83;;;;;;;12.54;53.98;100305.88;1706242;83;21248;-69
2021/11/23 08:43:07;;;;;;;6.63;4.40;;;;;;;12.02;54.66;100305.41;1756615;81;21756;-60
2021/11/23 08:45:35;;;;;;;8.23;5.40;;;;;;;11.69;55.66;100311.66;1758816;81;21734;-60
2021/11/23 08:48:02;;;;;;;7.13;4.43;;;;;;;12.22;54.61;100306.83;1719888;83;21792;-60
2021/11/23 08:50:29;;;;;;;17.10;11.07;;;;;;;12.41;53.98;100300.09;1758038;79;22090;-65
2021/11/23 08:53:07;;;;;;;8.70;6.00;;;;;;;12.70;53.08;100300.83;1757804;81;22774;-64
2021/11/23 08:55:26;;;;;;;8.07;5.33;;;;;;;12.38;53.18;100298.66;1747434;80;21812;-61
2021/11/23 08:57:54;;;;;;;9.07;5.30;;;;;;;12.67;52.44;100291.56;1746088;81;21317;-61
2021/11/23 09:00:22;;;;;;;7.57;5.07;;;;;;;12.48;52.75;100293.09;1745984;81;21146;-70
2021/11/23 09:02:52;;;;;;;10.40;5.73;;;;;;;12.61;52.57;100296.25;1757219;81;21572;-71
2021/11/23 09:05:21;;;;;;;6.43;4.00;;;;;;;12.89;51.55;100299.58;1745016;80;21216;-61
2021/11/23 09:07:49;;;;;;;5.93;3.60;;;;;;;12.89;51.07;100301.40;1751151;80;21291;-60
2021/11/23 09:10:21;;;;;;;9.43;3.17;;;;;;;12.78;50.82;100297.53;1749296;81;21146;-61
2021/11/23 09:12:46;;;;;;;8.50;4.67;;;;;;;12.86;50.66;100298.66;1750284;80;21256;-66
2021/11/23 09:15:14;;;;;;;7.10;4.73;;;;;;;12.28;51.60;100309.19;1733642;81;21265;-63
2021/11/23 09:17:43;;;;;;;9.23;4.70;;;;;;;12.28;51.51;100308.68;1754279;81;21705;-60
2021/11/23 09:20:11;;;;;;;9.13;4.70;;;;;;;12.48;50.76;100309.28;1757151;80;21588;-64
2021/11/23 09:22:40;;;;;;;10.57;7.47;;;;;;;12.42;50.86;100310.84;1753636;81;21040;-61
2021/11/23 09:25:09;;;;;;;8.87;5.17;;;;;;;12.26;51.35;100311.97;1719146;83;21229;-59
2021/11/23 09:27:37;;;;;;;12.07;7.37;;;;;;;12.36;51.25;100317.67;1697546;84;21815;-60
2021/11/23 09:30:07;;;;;;;8.87;6.10;;;;;;;12.51;50.31;100318.05;1698432;84;21129;-60
2021/11/23 09:32:36;;;;;;;7.30;4.57;;;;;;;12.76;50.13;100315.22;1719109;82;21757;-62
2021/11/23 09:35:04;;;;;;;6.73;2.97;;;;;;;12.82;49.41;100313.64;1753921;80;21183;-61
2021/11/23 09:37:31;;;;;;;5.53;2.90;;;;;;;12.80;48.90;100319.56;1744219;82;21873;-61
2021/11/23 09:39:58;;;;;;;6.03;3.10;;;;;;;12.73;47.88;100310.41;1743864;82;22559;-63
2021/11/23 09:42:25;;;;;;;4.77;2.37;;;;;;;12.18;49.18;100317.36;1744489;82;22765;-61
2021/11/23 09:44:56;;;;;;;5.43;2.90;;;;;;;12.38;48.67;100317.47;1743887;82;21742;-63
2021/11/23 09:47:26;;;;;;;6.80;4.07;;;;;;;12.46;48.21;100313.88;1744892;82;21613;-59
2021/11/23 09:49:56;;;;;;;7.00;4.13;;;;;;;12.06;48.81;100315.78;1749195;80;21169;-70
2021/11/23 09:52:23;;;;;;;5.67;2.90;;;;;;;12.18;48.72;100316.05;1745080;82;21634;-61
2021/11/23 09:54:51;;;;;;;6.03;2.33;;;;;;;12.26;48.10;100311.17;1743750;82;21149;-63
2021/11/23 09:57:20;;;;;;;4.67;2.53;;;;;;;12.24;47.73;100309.27;1744483;81;21379;-62
2021/11/23 09:59:48;;;;;;;5.07;2.43;;;;;;;12.12;48.01;100303.27;1744136;82;21269;-63
2021/11/23 10:02:27;;;;;;;6.20;2.10;;;;;;;11.93;48.84;100311.75;1744161;82;21340;-62
2021/11/23 10:05:06;;;;;;;4.03;1.97;;;;;;;12.16;48.73;100309.72;1744573;81;21838;-63
2021/11/23 10:07:40;;;;;;;6.87;2.70;;;;;;;12.15;48.23;100315.13;1743993;82;21280;-64
2021/11/23 10:10:21;;;;;;;17.40;4.63;;;;;;;12.57;46.46;100308.10;1744626;82;21201;-61
2021/11/23 10:12:59;;;;;;;8.07;3.47;;;;;;;12.23;47.39;100305.02;1760149;81;22308;-64
2021/11/23 10:15:29;;;;;;;13.23;5.10;;;;;;;12.38;47.21;100306.50;1754853;80;21147;-66
2021/11/23 10:18:10;;;;;;;11.53;5.07;;;;;;;12.48;47.12;100304.05;1751297;81;21267;-62
2021/11/23 10:20:50;;;;;;;8.88;3.92;;;;;;;12.60;46.82;100299.88;1753201;81;21651;-61
2021/11/23 10:23:24;;;;;;;7.30;3.73;;;;;;;12.63;46.91;100298.19;1749488;81;20984;-62
2021/11/23 10:25:55;;;;;;;8.67;4.03;;;;;;;12.66;47.29;100301.72;1755668;81;21675;-63
2021/11/23 10:28:25;;;;;;;7.20;3.50;;;;;;;12.61;47.92;100298.87;1758033;80;21219;-62
2021/11/23 10:30:53;;;;;;;9.00;4.10;;;;;;;12.59;48.51;100300.38;1755990;81;21117;-64
2021/11/23 10:33:21;;;;;;;10.23;4.10;;;;;;;12.84;47.76;100296.77;1746225;81;21262;-62
2021/11/23 10:35:52;;;;;;;7.87;3.27;;;;;;;12.99;47.59;100302.31;1750440;81;21229;-70
2021/11/23 10:38:20;;;;;;;6.10;3.05;;;;;;;12.97;47.66;100300.41;1748820;80;22345;-63
2021/11/23 10:40:48;;;;;;;37.77;12.10;;;;;;;13.21;47.44;100296.42;1750506;81;21421;-63
2021/11/23 10:43:17;;;;;;;13.17;6.30;;;;;;;13.30;47.23;100303.94;1750463;81;21773;-61
2021/11/23 10:45:49;;;;;;;25.77;9.23;;;;;;;13.49;45.65;100300.23;1747030;81;21127;-67
2021/11/23 10:48:18;;;;;;;12.82;5.85;;;;;;;13.29;45.40;100298.37;1745034;81;21205;-64
2021/11/23 10:51:06;;;;;;;23.30;7.77;;;;;;;13.25;44.92;100295.86;1753931;81;21161;-61
2021/11/23 10:53:33;;;;;;;36.40;11.67;;;;;;;13.25;44.92;100295.86;1746737;81;21335;-61
2021/11/23 10:56:09;;;;;;;15.00;5.87;;;;;;;12.88;44.68;100290.12;1750992;80;21250;-65
2021/11/23 10:58:36;;;;;;;25.57;10.53;;;;;;;12.77;45.50;100288.59;1748161;81;22043;-63
2021/11/23 11:01:05;;;;;;;7.57;3.10;;;;;;;12.58;45.68;100286.20;1742408;80;21753;-64
2021/11/23 11:03:34;;;;;;;11.70;4.40;;;;;;;12.72;45.36;100297.50;1748537;80;21197;-62
2021/11/23 11:06:02;;;;;;;8.93;3.80;;;;;;;12.85;45.22;100287.90;1775078;80;21755;-72
2021/11/23 11:08:34;;;;;;;5.80;2.97;;;;;;;12.98;44.98;100287.63;1774366;80;21365;-60
2021/11/23 11:11:02;;;;;;;5.00;2.80;;;;;;;13.18;44.36;100288.46;1775002;80;21655;-74
2021/11/23 11:13:29;;;;;;;6.20;3.30;;;;;;;13.18;43.61;100289.77;1775081;80;21265;-64
2021/11/23 11:15:57;;;;;;;7.27;4.10;;;;;;;13.19;43.38;100291.41;1736529;82;21197;-73
2021/11/23 11:18:25;;;;;;;4.10;2.40;;;;;;;13.11;43.79;100296.83;1776021;80;21240;-62
2021/11/23 11:21:03;;;;;;;5.47;3.23;;;;;;;13.21;43.27;100289.38;1773121;80;21136;-73
2021/11/23 11:23:32;;;;;;;5.03;2.60;;;;;;;13.15;43.14;100296.23;1775493;80;21085;-63
2021/11/23 11:26:16;;;;;;;5.57;2.70;;;;;;;12.87;43.62;100291.62;1775658;79;21695;-62
2021/11/23 11:28:54;;;;;;;6.03;3.02;;;;;;;12.54;44.22;100300.64;1775721;80;21254;-72
2021/11/23 11:31:47;;;;;;;7.30;3.98;;;;;;;12.53;44.03;100300.34;1774900;80;21013;-72
2021/11/23 11:34:32;;;;;;;6.80;2.90;;;;;;;12.44;43.78;100302.83;1771786;80;21151;-70